sensor_id;sensor_type;location;lat;lon;timestamp;temperature;humidity
76759;DHT22;65701;45.588;5.186;2023-04-03T14:22:57;10.10;74.74
76759;DHT22;65701;45.588;5.186;2023-04-03T14:25:24;10.17;74.85
76759;DHT22;65701;45.588;5.186;2023-04-03T14:27:52;10.25;74.84
76759;DHT22;65701;45.588;5.186;2023-04-03T14:30:31;10.32;74.69
76759;DHT22;65701;45.588;5.186;2023-04-03T14:33:01;10.32;74.56
76759;DHT22;65701;45.588;5.186;2023-04-03T14:35:28;10.37;74.53
76759;DHT22;65701;45.588;5.186;2023-04-03T14:37:55;10.50;74.49
76759;DHT22;65701;45.588;5.186;2023-04-03T14:40:25;10.60;74.61
76759;DHT22;65701;45.588;5.186;2023-04-03T14:42:52;10.69;74.39
76759;DHT22;65701;45.588;5.186;2023-04-03T14:45:20;10.79;74.31
76759;DHT22;65701;45.588;5.186;2023-04-03T14:47:49;10.79;73.99
76759;DHT22;65701;45.588;5.186;2023-04-03T14:50:18;10.83;73.93
76759;DHT22;65701;45.588;5.186;2023-04-03T14:52:44;10.84;74.07
76759;DHT22;65701;45.588;5.186;2023-04-03T14:55:14;10.96;74.07
76759;DHT22;65701;45.588;5.186;2023-04-03T14:57:40;10.96;73.79
76759;DHT22;65701;45.588;5.186;2023-04-03T15:00:11;11.01;73.51
76759;DHT22;65701;45.588;5.186;2023-04-03T15:02:38;11.03;73.22
76759;DHT22;65701;45.588;5.186;2023-04-03T15:05:06;11.03;73.22
76759;DHT22;65701;45.588;5.186;2023-04-03T15:07:36;11.06;73.20
76759;DHT22;65701;45.588;5.186;2023-04-03T15:10:14;10.97;72.78
76759;DHT22;65701;45.588;5.186;2023-04-03T15:12:41;10.93;72.52
76759;DHT22;65701;45.588;5.186;2023-04-03T15:15:08;10.80;72.34
76759;DHT22;65701;45.588;5.186;2023-04-03T15:17:33;10.75;72.52
76759;DHT22;65701;45.588;5.186;2023-04-03T15:20:00;10.75;72.65
76759;DHT22;65701;45.588;5.186;2023-04-03T15:22:27;10.76;72.65
76759;DHT22;65701;45.588;5.186;2023-04-03T15:24:53;10.63;72.28
76759;DHT22;65701;45.588;5.186;2023-04-03T15:27:18;10.69;72.15
76759;DHT22;65701;45.588;5.186;2023-04-03T15:29:45;10.66;72.13
76759;DHT22;65701;45.588;5.186;2023-04-03T15:32:12;10.62;72.07
76759;DHT22;65701;45.588;5.186;2023-04-03T15:34:39;10.65;71.87
76759;DHT22;65701;45.588;5.186;2023-04-03T15:37:05;10.63;71.77
76759;DHT22;65701;45.588;5.186;2023-04-03T15:39:31;10.59;71.67
76759;DHT22;65701;45.588;5.186;2023-04-03T15:41:57;10.56;71.49
76759;DHT22;65701;45.588;5.186;2023-04-03T15:44:32;10.50;71.33
76759;DHT22;65701;45.588;5.186;2023-04-03T15:46:59;10.52;71.32
76759;DHT22;65701;45.588;5.186;2023-04-03T15:49:25;10.45;71.29
76759;DHT22;65701;45.588;5.186;2023-04-03T15:51:51;10.48;71.41
76759;DHT22;65701;45.588;5.186;2023-04-03T15:54:17;10.48;71.41
76759;DHT22;65701;45.588;5.186;2023-04-03T15:56:42;10.46;71.32
76759;DHT22;65701;45.588;5.186;2023-04-03T15:59:09;10.48;71.33
76759;DHT22;65701;45.588;5.186;2023-04-03T16:01:59;10.46;71.21
76759;DHT22;65701;45.588;5.186;2023-04-03T16:04:27;10.42;71.07
76759;DHT22;65701;45.588;5.186;2023-04-03T16:06:53;10.42;71.05
76759;DHT22;65701;45.588;5.186;2023-04-03T16:09:19;10.45;71.03
76759;DHT22;65701;45.588;5.186;2023-04-03T16:11:45;10.45;71.12
76759;DHT22;65701;45.588;5.186;2023-04-03T16:14:11;10.50;71.23
76759;DHT22;65701;45.588;5.186;2023-04-03T16:16:37;10.45;70.86
76759;DHT22;65701;45.588;5.186;2023-04-03T16:19:04;10.48;70.63
76759;DHT22;65701;45.588;5.186;2023-04-03T16:21:30;10.48;70.61
76759;DHT22;65701;45.588;5.186;2023-04-03T16:24:00;10.45;70.71
76759;DHT22;65701;45.588;5.186;2023-04-03T16:26:26;10.44;70.44
76759;DHT22;65701;45.588;5.186;2023-04-03T16:28:53;10.45;70.15
76759;DHT22;65701;45.588;5.186;2023-04-03T16:31:19;10.41;70.11
76759;DHT22;65701;45.588;5.186;2023-04-03T16:33:44;10.37;69.92
76759;DHT22;65701;45.588;5.186;2023-04-03T16:36:10;10.31;69.63
76759;DHT22;65701;45.588;5.186;2023-04-03T16:38:36;10.25;69.41
76759;DHT22;65701;45.588;5.186;2023-04-03T16:41:01;10.20;69.17
76759;DHT22;65701;45.588;5.186;2023-04-03T16:43:30;10.20;68.98
76759;DHT22;65701;45.588;5.186;2023-04-03T16:45:56;10.18;68.99
76759;DHT22;65701;45.588;5.186;2023-04-03T16:48:22;10.10;68.90
76759;DHT22;65701;45.588;5.186;2023-04-03T16:50:48;10.08;68.73
76759;DHT22;65701;45.588;5.186;2023-04-03T16:53:16;9.98;68.71
76759;DHT22;65701;45.588;5.186;2023-04-03T16:55:43;10.04;68.49
76759;DHT22;65701;45.588;5.186;2023-04-03T16:58:09;10.00;68.14
76759;DHT22;65701;45.588;5.186;2023-04-03T17:00:35;9.94;67.86
76759;DHT22;65701;45.588;5.186;2023-04-03T17:03:01;9.96;67.82
76759;DHT22;65701;45.588;5.186;2023-04-03T17:05:27;9.94;67.72
76759;DHT22;65701;45.588;5.186;2023-04-03T17:07:52;9.94;67.81
76759;DHT22;65701;45.588;5.186;2023-04-03T17:10:18;9.96;67.88
76759;DHT22;65701;45.588;5.186;2023-04-03T17:12:44;9.94;67.89
76759;DHT22;65701;45.588;5.186;2023-04-03T17:15:09;9.97;67.97
76759;DHT22;65701;45.588;5.186;2023-04-03T17:17:35;9.97;68.10
76759;DHT22;65701;45.588;5.186;2023-04-03T17:20:02;9.93;68.07
76759;DHT22;65701;45.588;5.186;2023-04-03T17:22:28;9.86;67.81
76759;DHT22;65701;45.588;5.186;2023-04-03T17:24:54;9.83;67.75
76759;DHT22;65701;45.588;5.186;2023-04-03T17:27:20;9.79;67.71
76759;DHT22;65701;45.588;5.186;2023-04-03T17:29:45;9.75;67.78
76759;DHT22;65701;45.588;5.186;2023-04-03T17:32:11;9.62;67.64
76759;DHT22;65701;45.588;5.186;2023-04-03T17:34:36;9.65;67.67
76759;DHT22;65701;45.588;5.186;2023-04-03T17:37:02;9.59;67.71
76759;DHT22;65701;45.588;5.186;2023-04-03T17:39:28;9.56;67.81
76759;DHT22;65701;45.588;5.186;2023-04-03T17:41:53;9.55;67.87
76759;DHT22;65701;45.588;5.186;2023-04-03T17:44:21;9.55;67.92
76759;DHT22;65701;45.588;5.186;2023-04-03T17:46:46;9.49;67.93
76759;DHT22;65701;45.588;5.186;2023-04-03T17:49:12;9.45;68.05
76759;DHT22;65701;45.588;5.186;2023-04-03T17:51:40;9.39;68.09
76759;DHT22;65701;45.588;5.186;2023-04-03T17:54:06;9.36;68.07
76759;DHT22;65701;45.588;5.186;2023-04-03T17:56:32;9.31;67.83
76759;DHT22;65701;45.588;5.186;2023-04-03T17:58:58;9.30;67.62
76759;DHT22;65701;45.588;5.186;2023-04-03T18:01:29;9.25;67.47
76759;DHT22;65701;45.588;5.186;2023-04-03T18:03:57;9.22;67.02
76759;DHT22;65701;45.588;5.186;2023-04-03T18:06:27;9.22;66.69
76759;DHT22;65701;45.588;5.186;2023-04-03T18:09:00;9.13;66.22
76759;DHT22;65701;45.588;5.186;2023-04-03T18:11:29;9.10;65.88
76759;DHT22;65701;45.588;5.186;2023-04-03T18:13:57;9.10;65.67
76759;DHT22;65701;45.588;5.186;2023-04-03T18:16:24;9.03;65.55
76759;DHT22;65701;45.588;5.186;2023-04-03T18:18:49;9.03;65.56
76759;DHT22;65701;45.588;5.186;2023-04-03T18:21:15;8.96;65.66
76759;DHT22;65701;45.588;5.186;2023-04-03T18:23:45;8.94;65.54
76759;DHT22;65701;45.588;5.186;2023-04-03T18:26:13;8.93;65.31
76759;DHT22;65701;45.588;5.186;2023-04-03T18:28:41;8.90;65.18
76759;DHT22;65701;45.588;5.186;2023-04-03T18:31:08;8.90;65.18
76759;DHT22;65701;45.588;5.186;2023-04-03T18:33:36;8.88;65.15
76759;DHT22;65701;45.588;5.186;2023-04-03T18:36:03;8.79;65.02
76759;DHT22;65701;45.588;5.186;2023-04-03T18:38:28;8.75;64.79
76759;DHT22;65701;45.588;5.186;2023-04-03T18:40:54;8.75;64.77
76759;DHT22;65701;45.588;5.186;2023-04-03T18:43:24;8.72;64.73
76759;DHT22;65701;45.588;5.186;2023-04-03T18:45:51;8.67;64.85
76759;DHT22;65701;45.588;5.186;2023-04-03T18:48:16;8.67;64.86
76759;DHT22;65701;45.588;5.186;2023-04-03T18:50:42;8.63;64.77
76759;DHT22;65701;45.588;5.186;2023-04-03T18:53:08;8.55;64.74
76759;DHT22;65701;45.588;5.186;2023-04-03T18:55:33;8.50;64.72
76759;DHT22;65701;45.588;5.186;2023-04-03T18:58:02;8.50;64.73
76759;DHT22;65701;45.588;5.186;2023-04-03T19:00:28;8.48;64.74
76759;DHT22;65701;45.588;5.186;2023-04-03T19:02:53;8.45;64.75
76759;DHT22;65701;45.588;5.186;2023-04-03T19:05:19;8.46;64.73
76759;DHT22;65701;45.588;5.186;2023-04-03T19:07:47;8.41;64.76
76759;DHT22;65701;45.588;5.186;2023-04-03T19:10:15;8.37;64.88
76759;DHT22;65701;45.588;5.186;2023-04-03T19:12:45;8.29;64.68
76759;DHT22;65701;45.588;5.186;2023-04-03T19:15:13;8.27;64.77
76759;DHT22;65701;45.588;5.186;2023-04-03T19:17:40;8.21;64.63
76759;DHT22;65701;45.588;5.186;2023-04-03T19:20:07;8.18;64.62
76759;DHT22;65701;45.588;5.186;2023-04-03T19:22:33;8.14;64.67
76759;DHT22;65701;45.588;5.186;2023-04-03T19:25:04;8.14;64.58
76759;DHT22;65701;45.588;5.186;2023-04-03T19:27:30;8.07;64.63
76759;DHT22;65701;45.588;5.186;2023-04-03T19:29:55;8.04;64.63
76759;DHT22;65701;45.588;5.186;2023-04-03T19:32:21;8.05;64.65
76759;DHT22;65701;45.588;5.186;2023-04-03T19:34:46;7.97;64.72
76759;DHT22;65701;45.588;5.186;2023-04-03T19:50:10;7.90;65.09
76759;DHT22;65701;45.588;5.186;2023-04-03T19:52:38;7.91;65.03
76759;DHT22;65701;45.588;5.186;2023-04-03T19:55:05;7.90;65.10
76759;DHT22;65701;45.588;5.186;2023-04-03T19:57:31;7.93;65.20
76759;DHT22;65701;45.588;5.186;2023-04-03T19:59:56;7.89;65.20
76759;DHT22;65701;45.588;5.186;2023-04-03T20:02:22;7.82;65.24
76759;DHT22;65701;45.588;5.186;2023-04-03T20:04:47;7.83;65.28
76759;DHT22;65701;45.588;5.186;2023-04-03T20:07:13;7.87;65.42
76759;DHT22;65701;45.588;5.186;2023-04-03T20:09:38;7.83;65.37
76759;DHT22;65701;45.588;5.186;2023-04-03T20:12:04;7.87;65.49
76759;DHT22;65701;45.588;5.186;2023-04-03T20:14:30;7.89;65.59
76759;DHT22;65701;45.588;5.186;2023-04-03T20:16:56;7.86;65.58
76759;DHT22;65701;45.588;5.186;2023-04-03T20:19:22;7.86;65.67
76759;DHT22;65701;45.588;5.186;2023-04-03T20:21:50;7.82;65.68
76759;DHT22;65701;45.588;5.186;2023-04-03T20:24:16;7.83;65.57
76759;DHT22;65701;45.588;5.186;2023-04-03T20:26:42;7.82;65.72
76759;DHT22;65701;45.588;5.186;2023-04-03T20:29:11;7.76;65.74
76759;DHT22;65701;45.588;5.186;2023-04-03T20:31:38;7.82;65.74
76759;DHT22;65701;45.588;5.186;2023-04-03T20:34:04;7.82;65.89
76759;DHT22;65701;45.588;5.186;2023-04-03T20:36:30;7.82;65.97
